Missouri City, Missouri
Current Conditions -  °F | °C
As of 10:15 PM on Sunday 21 Dec 2014 (Local Time) from KGPH Reporting Station
Overcast Overcast  
Wind Chill: 39°   Ceiling: 1900
Heat Index: 43°   Visibility: 10mi
Dew Point: 37°   Wind: 7mph
Humidity: 81%   Direction: 140°SE
Pressure: 29.79"   Gusts: NA
Location:  39.24°N, 94.29°W
Report Text: KGPH 220415Z AUTO 14006KT 10SM OVC019 06/03 A2979 RMK AO2
Loading
Personal Weather Stations






























Interactive Weather Map New forecast layout! Learn more

10-Day Weather Forecast

Advertisements
Track Severe Weather on mobile